createdAt,value
2018-10-01T00:01:44.412Z,17.90
2018-10-01T00:04:11.928Z,24.70
2018-10-01T00:06:39.353Z,17.20
2018-10-01T00:09:07.720Z,16.30
2018-10-01T00:11:35.440Z,18.37
2018-10-01T00:14:03.425Z,19.90
2018-10-01T00:16:30.837Z,21.57
2018-10-01T00:18:58.342Z,22.10
2018-10-01T00:21:31.707Z,20.07
2018-10-01T00:23:59.285Z,19.33
2018-10-01T00:26:26.786Z,17.77
2018-10-01T00:28:54.378Z,18.17
2018-10-01T00:31:21.935Z,19.07
2018-10-01T00:33:49.575Z,20.83
2018-10-01T00:36:17.024Z,21.07
2018-10-01T00:38:44.594Z,18.20
2018-10-01T00:41:12.145Z,17.80
2018-10-01T00:43:39.552Z,17.97
2018-10-01T00:46:07.515Z,21.07
2018-10-01T00:48:35.125Z,17.43
2018-10-01T00:51:03.641Z,19.63
2018-10-01T00:53:32.262Z,19.30
2018-10-01T00:55:59.742Z,18.70
2018-10-01T00:58:27.362Z,17.23
2018-10-01T01:00:54.851Z,16.33
2018-10-01T01:03:22.685Z,21.00
2018-10-01T01:05:54.674Z,19.03
2018-10-01T01:08:22.756Z,18.57
2018-10-01T01:10:50.438Z,19.67
2018-10-01T01:13:24.019Z,19.60
2018-10-01T01:15:51.731Z,21.27
2018-10-01T01:18:20.748Z,21.80
2018-10-01T01:20:48.816Z,21.37
2018-10-01T01:23:16.362Z,21.27
2018-10-01T01:25:43.924Z,21.17
2018-10-01T01:28:15.021Z,21.10
2018-10-01T01:30:43.346Z,17.33
2018-10-01T01:33:11.189Z,18.63
2018-10-01T01:35:38.793Z,17.70
2018-10-01T01:38:06.533Z,17.47
2018-10-01T01:40:34.042Z,20.70
2018-10-01T01:43:01.679Z,16.63
2018-10-01T01:45:29.305Z,20.30
2018-10-01T01:47:57.008Z,22.60
2018-10-01T01:50:24.506Z,20.40
2018-10-01T01:52:52.433Z,17.07
2018-10-01T01:55:19.902Z,20.03
2018-10-01T01:57:47.464Z,17.80
2018-10-01T02:00:15.042Z,16.70
2018-10-01T02:02:42.567Z,18.23
2018-10-01T02:05:10.286Z,17.73
2018-10-01T02:07:37.820Z,14.47
2018-10-01T02:10:05.391Z,13.53
2018-10-01T02:12:32.938Z,12.43
2018-10-01T02:15:01.028Z,11.00
2018-10-01T02:17:28.569Z,10.70
2018-10-01T02:19:56.053Z,8.30
2018-10-01T02:22:23.802Z,6.87
2018-10-01T02:24:51.464Z,8.50
2018-10-01T02:27:19.002Z,8.93
2018-10-01T02:29:46.529Z,7.47
2018-10-01T02:32:14.116Z,9.10
2018-10-01T02:34:41.623Z,8.90
2018-10-01T02:37:09.205Z,10.53
2018-10-01T02:39:37.144Z,10.10
2018-10-01T02:42:04.658Z,11.40
2018-10-01T02:44:32.117Z,9.43
2018-10-01T02:46:59.527Z,10.17
2018-10-01T02:49:26.999Z,12.97
2018-10-01T02:52:00.191Z,7.27
2018-10-01T02:54:29.107Z,6.87
2018-10-01T02:56:56.826Z,7.07
2018-10-01T02:59:24.425Z,11.57
2018-10-01T03:01:51.988Z,8.60
2018-10-01T03:04:19.665Z,10.80
2018-10-01T03:06:47.184Z,7.03
2018-10-01T03:09:14.909Z,6.23
2018-10-01T03:11:42.371Z,7.13
2018-10-01T03:14:10.589Z,14.57
2018-10-01T03:16:38.425Z,7.33
2018-10-01T03:19:06.549Z,9.03
2018-10-01T03:21:35.238Z,6.97
2018-10-01T03:24:03.008Z,10.03
2018-10-01T03:26:30.527Z,7.97
2018-10-01T03:28:58.413Z,9.27
2018-10-01T03:31:25.925Z,10.83
2018-10-01T03:33:53.548Z,9.67
2018-10-01T03:36:21.203Z,12.33
2018-10-01T03:38:49.303Z,13.77
2018-10-01T03:41:16.970Z,8.00
2018-10-01T03:43:44.769Z,6.77
2018-10-01T03:46:12.684Z,7.10
2018-10-01T03:48:40.323Z,6.67
2018-10-01T03:51:08.013Z,9.43
2018-10-01T03:53:35.579Z,9.40
2018-10-01T03:56:03.114Z,9.53
2018-10-01T03:58:30.678Z,7.00
2018-10-01T04:00:58.281Z,9.20
2018-10-01T04:03:26.264Z,8.27
2018-10-01T04:05:54.669Z,7.90
2018-10-01T04:08:22.273Z,6.27
2018-10-01T04:11:26.575Z,10.60
2018-10-01T05:34:07.124Z,7.50
2018-10-01T05:36:52.574Z,7.37
2018-10-01T05:39:42.001Z,9.30
2018-10-01T06:48:05.583Z,3.17
2018-10-01T06:50:35.214Z,5.50
2018-10-01T06:53:04.017Z,7.03
2018-10-01T06:55:32.331Z,5.60
2018-10-01T06:58:02.855Z,3.57
2018-10-01T07:00:33.553Z,6.77
2018-10-01T07:03:03.661Z,4.70
2018-10-01T07:05:34.621Z,2.47
2018-10-01T07:08:03.471Z,3.47
2018-10-01T07:10:32.313Z,2.67
2018-10-01T07:13:03.007Z,3.37
2018-10-01T07:15:32.542Z,4.27
2018-10-01T07:18:03.405Z,2.97
2018-10-01T07:20:37.774Z,5.27
2018-10-01T07:23:10.145Z,6.40
2018-10-01T07:25:39.715Z,5.87
2018-10-01T07:28:11.651Z,6.13
2018-10-01T07:30:48.163Z,5.47
2018-10-01T07:33:18.219Z,6.03
2018-10-01T07:35:47.055Z,5.53
2018-10-01T07:38:23.119Z,6.47
2018-10-01T07:40:53.074Z,6.67
2018-10-01T07:43:21.899Z,9.23
2018-10-01T07:45:51.301Z,7.87
2018-10-01T07:50:59.673Z,6.60
2018-10-01T07:53:28.720Z,8.47
2018-10-01T07:56:01.010Z,8.33
2018-10-01T07:58:30.884Z,6.47
2018-10-01T08:01:01.361Z,6.40
2018-10-01T08:03:30.672Z,9.90
2018-10-01T08:05:59.809Z,8.93
2018-10-01T08:08:31.445Z,6.50
2018-10-01T08:11:03.094Z,6.00
2018-10-01T08:13:32.894Z,10.47
2018-10-01T08:16:03.687Z,6.90
2018-10-01T08:18:36.162Z,4.43
2018-10-01T08:21:05.646Z,6.13
2018-10-01T08:23:34.688Z,6.37
2018-10-01T08:26:07.124Z,6.17
2018-10-01T08:28:39.661Z,7.40
2018-10-01T08:31:09.440Z,7.70
2018-10-01T08:33:39.254Z,8.03
2018-10-01T08:36:10.637Z,3.93
2018-10-01T08:38:44.810Z,3.43
2018-10-01T08:41:19.058Z,9.70
2018-10-01T08:43:51.990Z,5.17
2018-10-01T08:46:23.754Z,5.37
2018-10-01T08:49:02.676Z,6.93
2018-10-01T08:51:37.743Z,6.47
2018-10-01T08:54:38.387Z,4.50
2018-10-01T08:57:07.634Z,4.60
2018-10-01T19:21:32.059Z,3.27
2018-10-01T19:23:59.931Z,6.67
2018-10-01T19:26:27.836Z,7.90
2018-10-01T19:28:55.446Z,5.57
2018-10-01T19:31:23.367Z,7.57
2018-10-01T19:33:50.920Z,8.60
2018-10-01T19:36:18.502Z,8.40
2018-10-01T19:38:46.616Z,7.13
2018-10-01T19:41:14.944Z,8.23
2018-10-01T19:43:43.832Z,6.07
2018-10-01T19:46:11.655Z,9.47
2018-10-01T19:48:39.366Z,8.27
2018-10-01T19:51:07.593Z,8.40
2018-10-01T19:53:35.775Z,8.13
2018-10-01T19:56:03.580Z,6.13
2018-10-01T19:58:31.773Z,9.37
2018-10-01T20:00:59.335Z,12.60
2018-10-01T20:03:27.292Z,6.77
2018-10-01T20:05:54.987Z,7.07
2018-10-01T20:08:25.839Z,9.25
2018-10-01T20:10:53.758Z,10.70
2018-10-01T20:13:21.548Z,5.87
2018-10-01T20:15:49.116Z,7.17
2018-10-01T20:18:17.651Z,8.60
2018-10-01T20:20:45.408Z,8.53
2018-10-01T20:23:13.313Z,6.03
2018-10-01T20:25:40.943Z,6.57
2018-10-01T20:28:08.777Z,5.53
2018-10-01T20:30:36.202Z,7.97
2018-10-01T20:33:04.080Z,6.30
2018-10-01T20:35:32.820Z,6.27
2018-10-01T20:38:00.511Z,8.00
2018-10-01T20:40:28.109Z,6.97
2018-10-01T20:42:55.660Z,7.70
2018-10-01T20:45:23.346Z,5.97
2018-10-01T20:47:51.359Z,7.53
2018-10-01T20:50:19.205Z,9.77
2018-10-01T20:52:46.775Z,10.30
2018-10-01T20:55:14.441Z,6.43
2018-10-01T20:57:41.890Z,12.13
2018-10-01T21:00:09.455Z,8.87
2018-10-01T21:02:37.376Z,9.53
2018-10-01T21:05:05.742Z,9.03
2018-10-01T21:07:33.685Z,10.90
2018-10-01T21:10:01.317Z,8.27
2018-10-01T21:12:29.230Z,10.43
2018-10-01T21:14:58.050Z,9.13
2018-10-01T21:17:25.753Z,11.73
2018-10-01T21:19:53.363Z,7.23
2018-10-01T21:22:21.004Z,11.43
2018-10-01T21:24:48.727Z,11.10
2018-10-01T21:27:16.438Z,9.50
2018-10-01T21:29:44.076Z,12.00
2018-10-01T21:32:11.555Z,12.53
2018-10-01T21:34:39.276Z,13.97
2018-10-01T21:37:07.497Z,12.37
2018-10-01T21:40:14.807Z,10.23
2018-10-01T21:42:42.491Z,10.07
2018-10-01T21:45:11.473Z,7.87
2018-10-01T21:47:39.511Z,12.97
2018-10-01T21:50:07.588Z,7.43
2018-10-01T21:52:35.132Z,8.10
2018-10-01T21:55:02.631Z,12.13
2018-10-01T21:57:30.894Z,10.23
2018-10-01T21:59:58.612Z,8.20
2018-10-01T22:02:26.115Z,10.90
2018-10-01T22:04:53.838Z,7.70
2018-10-01T22:07:21.516Z,10.23
2018-10-01T22:09:49.414Z,11.23
2018-10-01T22:12:17.028Z,10.27
2018-10-01T22:14:44.810Z,11.40
2018-10-01T22:17:12.607Z,12.40
2018-10-01T22:19:40.218Z,8.63
2018-10-01T22:22:09.009Z,6.70
2018-10-01T22:24:36.661Z,13.40
2018-10-01T22:27:04.426Z,11.43
2018-10-01T22:29:32.385Z,7.83
2018-10-01T22:31:59.992Z,7.33
2018-10-01T22:34:27.481Z,8.90
2018-10-01T22:36:54.981Z,7.63
2018-10-01T22:39:22.964Z,11.43
2018-10-01T22:41:50.896Z,16.43
2018-10-01T22:44:18.390Z,10.80
2018-10-01T22:46:46.123Z,12.23
2018-10-01T22:49:13.661Z,12.97
2018-10-01T22:51:41.241Z,15.87
2018-10-01T22:54:08.969Z,7.93
2018-10-01T22:56:39.411Z,13.00
2018-10-01T22:59:07.043Z,13.13
2018-10-01T23:01:34.615Z,12.57
2018-10-01T23:04:02.550Z,14.20
2018-10-01T23:06:30.194Z,8.00
2018-10-01T23:08:57.631Z,10.70
2018-10-01T23:11:25.181Z,8.43
2018-10-01T23:13:52.729Z,16.97
2018-10-01T23:16:20.304Z,13.30
2018-10-01T23:18:47.970Z,11.20
2018-10-01T23:21:15.522Z,10.03
2018-10-01T23:23:43.177Z,9.40
2018-10-01T23:26:10.718Z,13.00
2018-10-01T23:28:38.231Z,10.60
2018-10-01T23:31:06.096Z,8.60
2018-10-01T23:33:34.349Z,10.87
2018-10-01T23:36:02.464Z,9.57
2018-10-01T23:38:30.397Z,10.77
2018-10-01T23:40:58.481Z,9.47
2018-10-01T23:43:26.517Z,12.30
2018-10-01T23:45:53.996Z,12.33
2018-10-01T23:48:21.640Z,8.37
2018-10-01T23:50:49.139Z,10.73
2018-10-01T23:53:16.629Z,9.23
2018-10-01T23:55:44.187Z,13.47
2018-10-01T23:58:11.667Z,11.23
